sensor_id;sensor_type;location;lat;lon;timestamp;temperature;humidity
31769;DHT22;18342;52.132;21.048;2022-09-03T00:01:13;15.20;99.00
31769;DHT22;18342;52.132;21.048;2022-09-03T00:03:58;15.20;99.20
31769;DHT22;18342;52.132;21.048;2022-09-03T00:06:37;15.20;99.30
31769;DHT22;18342;52.132;21.048;2022-09-03T00:12:04;15.10;99.30
31769;DHT22;18342;52.132;21.048;2022-09-03T00:14:40;15.10;99.40
31769;DHT22;18342;52.132;21.048;2022-09-03T00:17:17;15.10;99.50
31769;DHT22;18342;52.132;21.048;2022-09-03T00:19:59;15.00;99.30
31769;DHT22;18342;52.132;21.048;2022-09-03T00:23:11;15.00;99.30
31769;DHT22;18342;52.132;21.048;2022-09-03T00:25:22;15.00;99.40
31769;DHT22;18342;52.132;21.048;2022-09-03T00:27:52;15.00;99.50
31769;DHT22;18342;52.132;21.048;2022-09-03T00:30:20;15.00;99.60
31769;DHT22;18342;52.132;21.048;2022-09-03T00:33:00;14.90;99.50
31769;DHT22;18342;52.132;21.048;2022-09-03T00:35:40;14.90;99.40
31769;DHT22;18342;52.132;21.048;2022-09-03T00:38:08;14.90;99.40
31769;DHT22;18342;52.132;21.048;2022-09-03T00:46:15;14.80;99.40
31769;DHT22;18342;52.132;21.048;2022-09-03T00:51:34;14.70;99.50
31769;DHT22;18342;52.132;21.048;2022-09-03T00:59:59;14.70;99.40
31769;DHT22;18342;52.132;21.048;2022-09-03T01:02:45;14.70;99.40
31769;DHT22;18342;52.132;21.048;2022-09-03T01:13:39;14.60;99.60
31769;DHT22;18342;52.132;21.048;2022-09-03T01:16:16;14.60;99.60
31769;DHT22;18342;52.132;21.048;2022-09-03T01:30:05;14.50;99.40
31769;DHT22;18342;52.132;21.048;2022-09-03T01:33:02;14.50;99.30
31769;DHT22;18342;52.132;21.048;2022-09-03T01:35:48;14.50;99.40
31769;DHT22;18342;52.132;21.048;2022-09-03T01:38:26;14.50;99.30
31769;DHT22;18342;52.132;21.048;2022-09-03T01:41:34;14.50;99.40
31769;DHT22;18342;52.132;21.048;2022-09-03T01:50:12;14.40;99.20
31769;DHT22;18342;52.132;21.048;2022-09-03T01:52:54;14.40;99.20
31769;DHT22;18342;52.132;21.048;2022-09-03T02:00:41;14.30;98.80
31769;DHT22;18342;52.132;21.048;2022-09-03T02:03:08;14.30;98.80
31769;DHT22;18342;52.132;21.048;2022-09-03T02:05:35;14.30;98.80
31769;DHT22;18342;52.132;21.048;2022-09-03T02:08:03;14.30;98.80
31769;DHT22;18342;52.132;21.048;2022-09-03T02:10:43;14.20;98.70
31769;DHT22;18342;52.132;21.048;2022-09-03T02:13:20;14.20;98.50
31769;DHT22;18342;52.132;21.048;2022-09-03T02:15:48;14.20;98.50
31769;DHT22;18342;52.132;21.048;2022-09-03T02:18:22;14.20;98.50
31769;DHT22;18342;52.132;21.048;2022-09-03T02:20:52;14.10;98.50
31769;DHT22;18342;52.132;21.048;2022-09-03T02:23:18;14.10;98.40
31769;DHT22;18342;52.132;21.048;2022-09-03T02:25:50;14.10;98.40
31769;DHT22;18342;52.132;21.048;2022-09-03T02:28:17;14.10;98.40
31769;DHT22;18342;52.132;21.048;2022-09-03T02:30:44;14.10;98.50
31769;DHT22;18342;52.132;21.048;2022-09-03T02:33:09;14.00;98.50
31769;DHT22;18342;52.132;21.048;2022-09-03T02:35:35;14.10;98.70
31769;DHT22;18342;52.132;21.048;2022-09-03T02:38:13;14.10;98.80
31769;DHT22;18342;52.132;21.048;2022-09-03T02:40:39;14.10;99.00
31769;DHT22;18342;52.132;21.048;2022-09-03T02:43:10;14.10;99.10
31769;DHT22;18342;52.132;21.048;2022-09-03T02:45:42;14.00;99.10
31769;DHT22;18342;52.132;21.048;2022-09-03T02:48:10;14.00;99.10
31769;DHT22;18342;52.132;21.048;2022-09-03T02:50:40;14.00;98.90
31769;DHT22;18342;52.132;21.048;2022-09-03T02:53:06;14.00;98.90
31769;DHT22;18342;52.132;21.048;2022-09-03T02:55:33;14.00;99.20
31769;DHT22;18342;52.132;21.048;2022-09-03T02:57:58;14.00;99.30
31769;DHT22;18342;52.132;21.048;2022-09-03T03:00:25;13.90;99.40
31769;DHT22;18342;52.132;21.048;2022-09-03T03:02:50;13.90;99.50
31769;DHT22;18342;52.132;21.048;2022-09-03T03:05:24;13.90;99.60
31769;DHT22;18342;52.132;21.048;2022-09-03T03:07:51;13.90;99.50
31769;DHT22;18342;52.132;21.048;2022-09-03T03:10:17;13.80;99.50
31769;DHT22;18342;52.132;21.048;2022-09-03T03:12:43;13.80;99.30
31769;DHT22;18342;52.132;21.048;2022-09-03T03:15:09;13.80;99.30
31769;DHT22;18342;52.132;21.048;2022-09-03T03:17:35;13.70;99.10
31769;DHT22;18342;52.132;21.048;2022-09-03T03:20:01;13.70;99.20
31769;DHT22;18342;52.132;21.048;2022-09-03T03:22:26;13.70;99.10
31769;DHT22;18342;52.132;21.048;2022-09-03T03:24:52;13.70;98.80
31769;DHT22;18342;52.132;21.048;2022-09-03T03:27:19;13.70;99.20
31769;DHT22;18342;52.132;21.048;2022-09-03T03:29:45;13.70;99.30
31769;DHT22;18342;52.132;21.048;2022-09-03T03:34:37;13.60;99.50
31769;DHT22;18342;52.132;21.048;2022-09-03T03:37:04;13.60;99.60
31769;DHT22;18342;52.132;21.048;2022-09-03T03:39:30;13.60;99.60
31769;DHT22;18342;52.132;21.048;2022-09-03T03:41:55;13.60;99.60
31769;DHT22;18342;52.132;21.048;2022-09-03T03:44:21;13.50;99.70
31769;DHT22;18342;52.132;21.048;2022-09-03T03:46:47;13.50;99.70
31769;DHT22;18342;52.132;21.048;2022-09-03T03:49:12;13.50;99.80
31769;DHT22;18342;52.132;21.048;2022-09-03T03:51:38;13.40;99.90
31769;DHT22;18342;52.132;21.048;2022-09-03T03:54:05;13.40;99.90
31769;DHT22;18342;52.132;21.048;2022-09-03T03:56:32;13.40;99.90
31769;DHT22;18342;52.132;21.048;2022-09-03T03:58:58;13.40;99.90
31769;DHT22;18342;52.132;21.048;2022-09-03T04:01:25;13.40;99.90
31769;DHT22;18342;52.132;21.048;2022-09-03T04:03:54;13.30;99.60
31769;DHT22;18342;52.132;21.048;2022-09-03T04:06:20;13.30;99.40
31769;DHT22;18342;52.132;21.048;2022-09-03T04:08:47;13.30;99.90
31769;DHT22;18342;52.132;21.048;2022-09-03T04:11:16;13.30;99.50
31769;DHT22;18342;52.132;21.048;2022-09-03T04:13:43;13.20;99.50
31769;DHT22;18342;52.132;21.048;2022-09-03T04:16:11;13.20;99.50
31769;DHT22;18342;52.132;21.048;2022-09-03T04:18:38;13.20;99.50
31769;DHT22;18342;52.132;21.048;2022-09-03T04:23:37;13.20;99.50
31769;DHT22;18342;52.132;21.048;2022-09-03T04:26:03;13.20;99.50
31769;DHT22;18342;52.132;21.048;2022-09-03T04:28:29;13.20;99.40
31769;DHT22;18342;52.132;21.048;2022-09-03T04:31:00;13.20;99.40
31769;DHT22;18342;52.132;21.048;2022-09-03T04:33:26;13.30;99.50
31769;DHT22;18342;52.132;21.048;2022-09-03T04:35:52;13.30;99.50
31769;DHT22;18342;52.132;21.048;2022-09-03T04:38:17;13.30;99.80
31769;DHT22;18342;52.132;21.048;2022-09-03T04:40:43;13.30;99.90
31769;DHT22;18342;52.132;21.048;2022-09-03T04:43:15;13.30;99.90
31769;DHT22;18342;52.132;21.048;2022-09-03T04:45:41;13.30;99.90
31769;DHT22;18342;52.132;21.048;2022-09-03T04:48:07;13.30;99.90
31769;DHT22;18342;52.132;21.048;2022-09-03T04:50:34;13.30;99.90
31769;DHT22;18342;52.132;21.048;2022-09-03T04:53:02;13.40;99.90
31769;DHT22;18342;52.132;21.048;2022-09-03T04:55:35;13.30;99.60
31769;DHT22;18342;52.132;21.048;2022-09-03T04:58:01;13.60;99.60
31769;DHT22;18342;52.132;21.048;2022-09-03T05:00:27;13.30;99.70
31769;DHT22;18342;52.132;21.048;2022-09-03T05:02:53;13.30;99.90
31769;DHT22;18342;52.132;21.048;2022-09-03T05:05:18;13.40;99.90
31769;DHT22;18342;52.132;21.048;2022-09-03T05:07:44;13.40;99.90
31769;DHT22;18342;52.132;21.048;2022-09-03T05:10:12;13.40;99.90
31769;DHT22;18342;52.132;21.048;2022-09-03T05:12:40;13.40;99.90
31769;DHT22;18342;52.132;21.048;2022-09-03T05:15:06;13.50;99.90
31769;DHT22;18342;52.132;21.048;2022-09-03T05:17:32;13.50;99.90
31769;DHT22;18342;52.132;21.048;2022-09-03T05:19:58;13.50;99.90
31769;DHT22;18342;52.132;21.048;2022-09-03T05:22:24;13.50;99.90
31769;DHT22;18342;52.132;21.048;2022-09-03T05:24:50;13.60;99.90
31769;DHT22;18342;52.132;21.048;2022-09-03T05:27:16;13.60;99.90
31769;DHT22;18342;52.132;21.048;2022-09-03T05:29:45;13.60;99.90
31769;DHT22;18342;52.132;21.048;2022-09-03T05:32:11;13.70;99.90
31769;DHT22;18342;52.132;21.048;2022-09-03T05:34:37;13.70;99.90
31769;DHT22;18342;52.132;21.048;2022-09-03T05:37:03;13.80;99.90
31769;DHT22;18342;52.132;21.048;2022-09-03T05:39:29;13.90;99.90
31769;DHT22;18342;52.132;21.048;2022-09-03T05:41:55;13.90;99.70
31769;DHT22;18342;52.132;21.048;2022-09-03T05:44:20;14.00;99.90
31769;DHT22;18342;52.132;21.048;2022-09-03T05:46:48;14.10;99.70
31769;DHT22;18342;52.132;21.048;2022-09-03T05:49:14;14.20;99.50
31769;DHT22;18342;52.132;21.048;2022-09-03T05:51:40;14.40;99.30
31769;DHT22;18342;52.132;21.048;2022-09-03T05:54:07;14.50;99.10
31769;DHT22;18342;52.132;21.048;2022-09-03T05:56:36;14.70;98.90
31769;DHT22;18342;52.132;21.048;2022-09-03T05:59:07;14.80;98.60
31769;DHT22;18342;52.132;21.048;2022-09-03T06:01:36;14.90;98.50
31769;DHT22;18342;52.132;21.048;2022-09-03T06:04:08;15.10;98.60
31769;DHT22;18342;52.132;21.048;2022-09-03T06:06:36;15.20;98.10
31769;DHT22;18342;52.132;21.048;2022-09-03T06:09:07;15.30;97.80
31769;DHT22;18342;52.132;21.048;2022-09-03T06:11:34;15.40;97.70
31769;DHT22;18342;52.132;21.048;2022-09-03T06:14:03;15.40;97.40
31769;DHT22;18342;52.132;21.048;2022-09-03T06:16:31;15.50;97.50
31769;DHT22;18342;52.132;21.048;2022-09-03T06:18:57;15.60;97.40
31769;DHT22;18342;52.132;21.048;2022-09-03T06:21:23;15.70;97.10
31769;DHT22;18342;52.132;21.048;2022-09-03T06:23:54;15.70;96.90
31769;DHT22;18342;52.132;21.048;2022-09-03T06:26:24;15.80;97.10
31769;DHT22;18342;52.132;21.048;2022-09-03T06:28:50;15.90;97.20
31769;DHT22;18342;52.132;21.048;2022-09-03T06:31:19;16.00;97.10
31769;DHT22;18342;52.132;21.048;2022-09-03T06:33:46;16.10;96.80
31769;DHT22;18342;52.132;21.048;2022-09-03T06:36:14;16.10;96.80
31769;DHT22;18342;52.132;21.048;2022-09-03T06:38:41;16.20;96.50
31769;DHT22;18342;52.132;21.048;2022-09-03T06:41:15;16.30;96.30
31769;DHT22;18342;52.132;21.048;2022-09-03T06:43:48;16.30;96.40
31769;DHT22;18342;52.132;21.048;2022-09-03T06:46:16;16.40;96.50
31769;DHT22;18342;52.132;21.048;2022-09-03T06:48:42;16.50;96.40
31769;DHT22;18342;52.132;21.048;2022-09-03T06:51:10;16.50;96.30
31769;DHT22;18342;52.132;21.048;2022-09-03T06:53:38;16.50;96.20
31769;DHT22;18342;52.132;21.048;2022-09-03T06:56:09;16.60;95.90
31769;DHT22;18342;52.132;21.048;2022-09-03T06:58:38;16.70;96.00
31769;DHT22;18342;52.132;21.048;2022-09-03T07:01:12;16.70;96.00
31769;DHT22;18342;52.132;21.048;2022-09-03T07:03:40;16.80;96.40
31769;DHT22;18342;52.132;21.048;2022-09-03T07:06:14;16.80;96.00
31769;DHT22;18342;52.132;21.048;2022-09-03T07:08:40;16.90;96.00
31769;DHT22;18342;52.132;21.048;2022-09-03T07:11:10;16.90;96.20
31769;DHT22;18342;52.132;21.048;2022-09-03T07:13:40;16.90;95.90
31769;DHT22;18342;52.132;21.048;2022-09-03T07:16:11;17.00;95.90
31769;DHT22;18342;52.132;21.048;2022-09-03T07:18:37;17.10;95.90
31769;DHT22;18342;52.132;21.048;2022-09-03T07:21:06;17.00;95.60
31769;DHT22;18342;52.132;21.048;2022-09-03T07:23:33;17.00;95.40
31769;DHT22;18342;52.132;21.048;2022-09-03T07:26:00;17.10;95.00
31769;DHT22;18342;52.132;21.048;2022-09-03T07:28:28;17.10;95.00
31769;DHT22;18342;52.132;21.048;2022-09-03T07:31:03;17.20;95.50
31769;DHT22;18342;52.132;21.048;2022-09-03T07:33:30;17.20;95.40
31769;DHT22;18342;52.132;21.048;2022-09-03T07:36:01;17.20;95.20
31769;DHT22;18342;52.132;21.048;2022-09-03T07:38:27;17.30;95.30
31769;DHT22;18342;52.132;21.048;2022-09-03T07:41:00;17.30;95.80
31769;DHT22;18342;52.132;21.048;2022-09-03T07:43:28;17.40;95.10
31769;DHT22;18342;52.132;21.048;2022-09-03T07:45:54;17.40;95.10
31769;DHT22;18342;52.132;21.048;2022-09-03T07:48:22;17.50;94.80
31769;DHT22;18342;52.132;21.048;2022-09-03T07:50:48;17.50;94.80
31769;DHT22;18342;52.132;21.048;2022-09-03T07:53:17;17.60;94.40
31769;DHT22;18342;52.132;21.048;2022-09-03T07:55:44;17.70;94.50
31769;DHT22;18342;52.132;21.048;2022-09-03T07:58:10;17.90;94.40
31769;DHT22;18342;52.132;21.048;2022-09-03T08:00:37;18.00;93.90
31769;DHT22;18342;52.132;21.048;2022-09-03T08:03:03;18.10;93.80
31769;DHT22;18342;52.132;21.048;2022-09-03T08:05:34;18.20;93.50
31769;DHT22;18342;52.132;21.048;2022-09-03T08:08:01;18.30;93.70
31769;DHT22;18342;52.132;21.048;2022-09-03T08:10:27;18.40;93.50
31769;DHT22;18342;52.132;21.048;2022-09-03T08:12:58;18.60;92.50
31769;DHT22;18342;52.132;21.048;2022-09-03T08:15:25;18.70;92.30
31769;DHT22;18342;52.132;21.048;2022-09-03T08:17:50;18.80;90.90
31769;DHT22;18342;52.132;21.048;2022-09-03T08:20:17;18.90;90.80
31769;DHT22;18342;52.132;21.048;2022-09-03T08:22:43;19.10;90.30
31769;DHT22;18342;52.132;21.048;2022-09-03T08:25:08;19.20;90.10
31769;DHT22;18342;52.132;21.048;2022-09-03T08:27:34;19.30;90.00
31769;DHT22;18342;52.132;21.048;2022-09-03T08:30:00;19.50;88.80
31769;DHT22;18342;52.132;21.048;2022-09-03T08:32:26;19.70;88.30
31769;DHT22;18342;52.132;21.048;2022-09-03T08:34:51;19.80;87.20
31769;DHT22;18342;52.132;21.048;2022-09-03T08:37:17;20.00;86.90
31769;DHT22;18342;52.132;21.048;2022-09-03T08:39:44;20.10;84.70
31769;DHT22;18342;52.132;21.048;2022-09-03T08:44:51;20.30;82.40
31769;DHT22;18342;52.132;21.048;2022-09-03T08:52:47;20.80;79.20
31769;DHT22;18342;52.132;21.048;2022-09-03T08:58:24;21.00;75.20
31769;DHT22;18342;52.132;21.048;2022-09-03T09:06:31;21.50;78.40
31769;DHT22;18342;52.132;21.048;2022-09-03T09:09:24;21.60;76.90
31769;DHT22;18342;52.132;21.048;2022-09-03T09:17:41;22.10;76.90
31769;DHT22;18342;52.132;21.048;2022-09-03T09:22:54;22.10;73.10
31769;DHT22;18342;52.132;21.048;2022-09-03T09:25:23;22.10;72.50
31769;DHT22;18342;52.132;21.048;2022-09-03T09:28:15;22.10;71.90
31769;DHT22;18342;52.132;21.048;2022-09-03T09:30:42;22.20;73.10
31769;DHT22;18342;52.132;21.048;2022-09-03T09:33:09;22.40;71.00
31769;DHT22;18342;52.132;21.048;2022-09-03T09:35:34;22.40;70.20
31769;DHT22;18342;52.132;21.048;2022-09-03T09:38:00;22.50;69.80
31769;DHT22;18342;52.132;21.048;2022-09-03T09:43:19;22.60;69.60
31769;DHT22;18342;52.132;21.048;2022-09-03T09:45:51;22.80;69.10
31769;DHT22;18342;52.132;21.048;2022-09-03T09:48:27;22.80;69.30
31769;DHT22;18342;52.132;21.048;2022-09-03T09:53:30;22.90;69.10
31769;DHT22;18342;52.132;21.048;2022-09-03T09:55:57;22.80;68.30
31769;DHT22;18342;52.132;21.048;2022-09-03T09:58:25;22.90;68.10
31769;DHT22;18342;52.132;21.048;2022-09-03T10:00:56;22.90;68.10
31769;DHT22;18342;52.132;21.048;2022-09-03T10:03:23;22.90;67.10
31769;DHT22;18342;52.132;21.048;2022-09-03T10:06:06;22.90;69.10
31769;DHT22;18342;52.132;21.048;2022-09-03T10:09:13;22.90;69.20
31769;DHT22;18342;52.132;21.048;2022-09-03T10:11:46;23.00;67.40
31769;DHT22;18342;52.132;21.048;2022-09-03T10:14:58;22.90;66.80
31769;DHT22;18342;52.132;21.048;2022-09-03T10:17:29;22.90;67.10
31769;DHT22;18342;52.132;21.048;2022-09-03T10:23:19;23.00;67.30
31769;DHT22;18342;52.132;21.048;2022-09-03T10:28:15;22.80;66.70
31769;DHT22;18342;52.132;21.048;2022-09-03T10:33:59;22.90;66.80
31769;DHT22;18342;52.132;21.048;2022-09-03T10:50:25;23.00;66.50
31769;DHT22;18342;52.132;21.048;2022-09-03T10:55:28;23.10;65.90
31769;DHT22;18342;52.132;21.048;2022-09-03T11:00:59;23.20;65.70
31769;DHT22;18342;52.132;21.048;2022-09-03T11:08:29;23.30;65.60
31769;DHT22;18342;52.132;21.048;2022-09-03T11:11:32;23.20;65.30
31769;DHT22;18342;52.132;21.048;2022-09-03T11:14:12;23.30;67.40
31769;DHT22;18342;52.132;21.048;2022-09-03T11:16:45;23.30;66.30
31769;DHT22;18342;52.132;21.048;2022-09-03T11:19:16;23.20;66.20
31769;DHT22;18342;52.132;21.048;2022-09-03T11:21:42;23.10;66.20
31769;DHT22;18342;52.132;21.048;2022-09-03T11:30:10;23.10;67.10
31769;DHT22;18342;52.132;21.048;2022-09-03T11:32:55;23.10;67.70
31769;DHT22;18342;52.132;21.048;2022-09-03T11:38:04;22.90;66.00
31769;DHT22;18342;52.132;21.048;2022-09-03T11:40:35;22.70;66.30
31769;DHT22;18342;52.132;21.048;2022-09-03T11:43:31;22.60;65.60
31769;DHT22;18342;52.132;21.048;2022-09-03T11:48:51;22.40;64.50
31769;DHT22;18342;52.132;21.048;2022-09-03T11:56:36;22.20;65.60
31769;DHT22;18342;52.132;21.048;2022-09-03T11:59:16;22.10;65.60
31769;DHT22;18342;52.132;21.048;2022-09-03T12:01:57;22.10;65.30
31769;DHT22;18342;52.132;21.048;2022-09-03T12:04:43;22.00;65.30
31769;DHT22;18342;52.132;21.048;2022-09-03T12:12:45;21.90;66.20
31769;DHT22;18342;52.132;21.048;2022-09-03T12:18:30;21.90;67.80
31769;DHT22;18342;52.132;21.048;2022-09-03T12:23:44;21.90;67.40
31769;DHT22;18342;52.132;21.048;2022-09-03T12:26:15;21.90;66.10
31769;DHT22;18342;52.132;21.048;2022-09-03T12:28:45;21.90;66.20
31769;DHT22;18342;52.132;21.048;2022-09-03T12:33:57;21.80;66.10
31769;DHT22;18342;52.132;21.048;2022-09-03T12:36:24;21.80;66.40
31769;DHT22;18342;52.132;21.048;2022-09-03T12:38:51;21.70;64.90
31769;DHT22;18342;52.132;21.048;2022-09-03T12:41:22;21.60;65.80
31769;DHT22;18342;52.132;21.048;2022-09-03T12:43:54;21.60;65.60
31769;DHT22;18342;52.132;21.048;2022-09-03T12:46:28;21.50;66.70
31769;DHT22;18342;52.132;21.048;2022-09-03T12:51:31;21.50;66.50
31769;DHT22;18342;52.132;21.048;2022-09-03T12:53:58;21.50;67.80
31769;DHT22;18342;52.132;21.048;2022-09-03T12:56:24;21.40;65.70
31769;DHT22;18342;52.132;21.048;2022-09-03T12:59:08;21.40;66.20
31769;DHT22;18342;52.132;21.048;2022-09-03T13:01:44;21.40;66.20
31769;DHT22;18342;52.132;21.048;2022-09-03T13:04:24;21.40;65.80
31769;DHT22;18342;52.132;21.048;2022-09-03T13:09:22;21.40;65.80
31769;DHT22;18342;52.132;21.048;2022-09-03T13:11:48;21.40;65.90
31769;DHT22;18342;52.132;21.048;2022-09-03T13:14:16;21.40;65.30
31769;DHT22;18342;52.132;21.048;2022-09-03T13:30:20;21.40;67.80
31769;DHT22;18342;52.132;21.048;2022-09-03T13:33:20;21.40;67.50
31769;DHT22;18342;52.132;21.048;2022-09-03T13:35:48;21.40;67.50
31769;DHT22;18342;52.132;21.048;2022-09-03T13:41:27;21.30;67.30
31769;DHT22;18342;52.132;21.048;2022-09-03T13:44:01;21.30;68.20
31769;DHT22;18342;52.132;21.048;2022-09-03T13:46:41;21.30;68.30
31769;DHT22;18342;52.132;21.048;2022-09-03T13:58:33;21.30;66.30
31769;DHT22;18342;52.132;21.048;2022-09-03T14:01:09;21.30;66.10
31769;DHT22;18342;52.132;21.048;2022-09-03T14:03:52;21.30;66.20
31769;DHT22;18342;52.132;21.048;2022-09-03T14:20:21;21.30;68.40
31769;DHT22;18342;52.132;21.048;2022-09-03T14:25:20;21.20;68.60
31769;DHT22;18342;52.132;21.048;2022-09-03T14:27:46;21.20;68.60
31769;DHT22;18342;52.132;21.048;2022-09-03T14:32:43;21.20;68.70
31769;DHT22;18342;52.132;21.048;2022-09-03T14:40:49;21.30;68.00
31769;DHT22;18342;52.132;21.048;2022-09-03T14:51:37;21.30;68.30
31769;DHT22;18342;52.132;21.048;2022-09-03T15:13:28;21.20;68.90
31769;DHT22;18342;52.132;21.048;2022-09-03T15:18:43;21.20;69.80
31769;DHT22;18342;52.132;21.048;2022-09-03T15:24:01;21.20;69.80
31769;DHT22;18342;52.132;21.048;2022-09-03T15:29:21;21.10;70.00
31769;DHT22;18342;52.132;21.048;2022-09-03T15:34:52;21.10;70.20
31769;DHT22;18342;52.132;21.048;2022-09-03T15:37:32;21.10;69.80
31769;DHT22;18342;52.132;21.048;2022-09-03T15:40:33;21.10;69.70
31769;DHT22;18342;52.132;21.048;2022-09-03T15:45:52;21.10;69.50
31769;DHT22;18342;52.132;21.048;2022-09-03T15:53:51;21.10;70.60
31769;DHT22;18342;52.132;21.048;2022-09-03T15:56:27;21.10;70.70
31769;DHT22;18342;52.132;21.048;2022-09-03T15:59:11;21.00;70.70
31769;DHT22;18342;52.132;21.048;2022-09-03T16:02:03;21.00;70.80
31769;DHT22;18342;52.132;21.048;2022-09-03T16:07:17;21.00;70.80
31769;DHT22;18342;52.132;21.048;2022-09-03T16:17:56;20.90;71.20
31769;DHT22;18342;52.132;21.048;2022-09-03T16:25:29;20.80;71.70
31769;DHT22;18342;52.132;21.048;2022-09-03T16:35:57;20.70;72.40
31769;DHT22;18342;52.132;21.048;2022-09-03T16:38:46;20.70;72.60
31769;DHT22;18342;52.132;21.048;2022-09-03T16:47:23;20.60;72.90
31769;DHT22;18342;52.132;21.048;2022-09-03T16:55:49;20.50;78.50
31769;DHT22;18342;52.132;21.048;2022-09-03T16:58:47;20.50;81.10
31769;DHT22;18342;52.132;21.048;2022-09-03T17:07:13;20.10;85.70
31769;DHT22;18342;52.132;21.048;2022-09-03T17:32:14;19.40;91.70
31769;DHT22;18342;52.132;21.048;2022-09-03T17:35:15;19.40;91.80
31769;DHT22;18342;52.132;21.048;2022-09-03T17:49:00;19.00;92.40
31769;DHT22;18342;52.132;21.048;2022-09-03T17:51:43;18.90;92.50
31769;DHT22;18342;52.132;21.048;2022-09-03T17:54:24;18.90;92.70
31769;DHT22;18342;52.132;21.048;2022-09-03T18:00:02;18.80;92.80
31769;DHT22;18342;52.132;21.048;2022-09-03T18:02:41;18.70;92.80
31769;DHT22;18342;52.132;21.048;2022-09-03T18:05:18;18.60;92.80
31769;DHT22;18342;52.132;21.048;2022-09-03T18:16:05;18.40;93.40
31769;DHT22;18342;52.132;21.048;2022-09-03T18:18:33;18.30;93.50
31769;DHT22;18342;52.132;21.048;2022-09-03T18:21:07;18.30;93.70
31769;DHT22;18342;52.132;21.048;2022-09-03T18:27:26;18.10;94.10
31769;DHT22;18342;52.132;21.048;2022-09-03T18:30:13;18.10;94.40
31769;DHT22;18342;52.132;21.048;2022-09-03T18:32:58;18.00;94.60
31769;DHT22;18342;52.132;21.048;2022-09-03T18:35:44;18.00;94.70
31769;DHT22;18342;52.132;21.048;2022-09-03T18:38:37;18.00;94.80
31769;DHT22;18342;52.132;21.048;2022-09-03T19:01:50;17.60;95.50
31769;DHT22;18342;52.132;21.048;2022-09-03T19:10:41;17.50;95.80
31769;DHT22;18342;52.132;21.048;2022-09-03T19:13:37;17.40;95.90
31769;DHT22;18342;52.132;21.048;2022-09-03T19:19:56;17.40;96.00
31769;DHT22;18342;52.132;21.048;2022-09-03T19:22:45;17.20;96.20
31769;DHT22;18342;52.132;21.048;2022-09-03T19:25:30;17.20;96.40
31769;DHT22;18342;52.132;21.048;2022-09-03T19:28:28;17.10;96.50
31769;DHT22;18342;52.132;21.048;2022-09-03T19:37:39;17.10;96.80
31769;DHT22;18342;52.132;21.048;2022-09-03T19:41:10;17.10;96.80
31769;DHT22;18342;52.132;21.048;2022-09-03T19:43:53;17.10;96.70
31769;DHT22;18342;52.132;21.048;2022-09-03T19:53:18;17.10;96.90
31769;DHT22;18342;52.132;21.048;2022-09-03T19:56:08;17.00;97.00
31769;DHT22;18342;52.132;21.048;2022-09-03T19:58:55;17.00;97.00
31769;DHT22;18342;52.132;21.048;2022-09-03T20:01:41;17.00;97.10
31769;DHT22;18342;52.132;21.048;2022-09-03T20:04:45;16.90;96.80
31769;DHT22;18342;52.132;21.048;2022-09-03T20:07:31;17.00;96.80
31769;DHT22;18342;52.132;21.048;2022-09-03T20:10:18;16.90;96.70
31769;DHT22;18342;52.132;21.048;2022-09-03T20:13:01;16.90;96.70
31769;DHT22;18342;52.132;21.048;2022-09-03T20:26:16;16.90;95.80
31769;DHT22;18342;52.132;21.048;2022-09-03T20:29:18;16.90;95.80
31769;DHT22;18342;52.132;21.048;2022-09-03T20:35:25;16.90;96.30
31769;DHT22;18342;52.132;21.048;2022-09-03T20:37:43;16.80;96.10
31769;DHT22;18342;52.132;21.048;2022-09-03T20:51:21;16.80;96.20
31769;DHT22;18342;52.132;21.048;2022-09-03T20:56:39;16.80;96.70
31769;DHT22;18342;52.132;21.048;2022-09-03T21:08:02;16.60;95.20
31769;DHT22;18342;52.132;21.048;2022-09-03T21:16:37;16.70;94.90
31769;DHT22;18342;52.132;21.048;2022-09-03T21:19:08;16.70;95.00
31769;DHT22;18342;52.132;21.048;2022-09-03T21:21:59;16.50;95.70
31769;DHT22;18342;52.132;21.048;2022-09-03T21:27:13;16.50;96.50
31769;DHT22;18342;52.132;21.048;2022-09-03T21:29:43;16.50;96.60
31769;DHT22;18342;52.132;21.048;2022-09-03T21:32:23;16.40;96.60
31769;DHT22;18342;52.132;21.048;2022-09-03T21:37:34;16.40;96.70
31769;DHT22;18342;52.132;21.048;2022-09-03T21:40:01;16.40;96.90
31769;DHT22;18342;52.132;21.048;2022-09-03T21:47:43;16.40;97.10
31769;DHT22;18342;52.132;21.048;2022-09-03T21:58:43;16.30;97.20
31769;DHT22;18342;52.132;21.048;2022-09-03T22:01:20;16.30;97.10
31769;DHT22;18342;52.132;21.048;2022-09-03T22:03:47;16.30;96.30
31769;DHT22;18342;52.132;21.048;2022-09-03T22:06:18;16.20;96.50
31769;DHT22;18342;52.132;21.048;2022-09-03T22:08:57;16.20;96.70
31769;DHT22;18342;52.132;21.048;2022-09-03T22:11:31;16.30;96.60
31769;DHT22;18342;52.132;21.048;2022-09-03T22:14:14;16.20;95.90
31769;DHT22;18342;52.132;21.048;2022-09-03T22:19:20;16.20;95.50
31769;DHT22;18342;52.132;21.048;2022-09-03T22:21:54;16.10;95.30
31769;DHT22;18342;52.132;21.048;2022-09-03T22:24:34;16.20;95.30
31769;DHT22;18342;52.132;21.048;2022-09-03T22:32:18;16.10;95.40
31769;DHT22;18342;52.132;21.048;2022-09-03T22:40:21;16.20;95.40
31769;DHT22;18342;52.132;21.048;2022-09-03T22:50:59;16.10;95.40
31769;DHT22;18342;52.132;21.048;2022-09-03T22:56:16;16.10;95.80
31769;DHT22;18342;52.132;21.048;2022-09-03T23:01:55;16.10;96.30
31769;DHT22;18342;52.132;21.048;2022-09-03T23:07:26;16.10;96.80
31769;DHT22;18342;52.132;21.048;2022-09-03T23:10:02;16.00;96.80
31769;DHT22;18342;52.132;21.048;2022-09-03T23:12:50;16.00;97.00
31769;DHT22;18342;52.132;21.048;2022-09-03T23:15:21;15.90;96.90
31769;DHT22;18342;52.132;21.048;2022-09-03T23:18:15;15.80;97.00
31769;DHT22;18342;52.132;21.048;2022-09-03T23:20:53;15.80;97.00
31769;DHT22;18342;52.132;21.048;2022-09-03T23:23:23;15.80;97.00
31769;DHT22;18342;52.132;21.048;2022-09-03T23:26:40;15.70;97.10
31769;DHT22;18342;52.132;21.048;2022-09-03T23:29:10;15.70;97.40
31769;DHT22;18342;52.132;21.048;2022-09-03T23:31:36;15.60;97.40
31769;DHT22;18342;52.132;21.048;2022-09-03T23:34:03;15.70;97.40
31769;DHT22;18342;52.132;21.048;2022-09-03T23:58:13;15.40;98.20
